Terminal Aerodrome Forecast
Issued by NWS Albany, NY

Home | Current Version | Previous Version | Text Only | Print | Product List | Glossary On
Versions: 1 2 3 4 5 6 7 8 9 10 11 12 13 14 15 16 17 18 19 20
427
FTUS41 KALY 281128
TAFGFL
TAF
KGFL 281128Z 2812/2912 03005KT P6SM SCT020 BKN040 BKN250
      TEMPO 2812/2813 3SM BR BKN002
     FM281600 03006KT P6SM SCT040 SCT250
     FM290000 36003KT P6SM SCT250=

USA.gov is the U.S. government's official web portal to all federal, state and local government web resources and services.